Pimlico — WDC3747 — position and weather

sailwx.info

Track history (hours):
 
Tides and Currents Weather Stations Pressure Air Temp Water Temp Dewpoint Dewpoint Depression Visibility Wind Speed Wind Dir Waves Ship Positions

Pimlico

Owner: Higman Barge Lines, Inc., Orange, TX. More information available from US FCC via Universal Licensing System and Coast Guard Vessel Documentation Center.

Last reported at 2018-May-18 10:51 UTC. Time now 2018-May-20 15:56 UTC.
Position N 29°47' W 095°04'.

Length 24 m; draft 3 m.

Type: Towing. MMSI: 367013470.

Date/timePositionNaut miles runAvg speedWind from/ knotsBaromVisibWave heightAir tempDewpointWater temp
2018-May-18 10:51N 29°47' W 095°04'0 0.4
2018-May-18 10:29N 29°47' W 095°04'0 0.2
2018-May-18 09:37N 29°47' W 095°04'0 0.0
2018-May-18 09:29N 29°47' W 095°04'0 0.0
2018-May-18 08:58N 29°47' W 095°04'0 0.0
2018-May-18 08:30N 29°47' W 095°04'0 0.0
2018-May-18 08:00N 29°47' W 095°04'0 0.0
2018-May-18 07:30N 29°47' W 095°04'0 0.0
2018-May-18 07:00N 29°47' W 095°04'0 0.0
2018-May-18 06:29N 29°47' W 095°04'0 0.0
2018-May-18 06:00N 29°47' W 095°04'0 0.0
2018-May-18 05:29N 29°47' W 095°04'0 0.0
2018-May-18 04:51N 29°47' W 095°04'0 0.0
2018-May-18 04:30N 29°47' W 095°04'0 0.0
2018-May-18 03:43N 29°47' W 095°04'0 0.0
2018-May-18 03:21N 29°47' W 095°04'0 0.0
2018-May-18 02:59N 29°47' W 095°04'0 0.0
2018-May-17 04:10N 29°47' W 095°04'0 0.0
2018-May-17 03:52N 29°47' W 095°04'0 0.0
2018-May-17 03:29N 29°47' W 095°04'2 0.1
2018-May-16 13:57N 29°46' W 095°06'3 4.4
2018-May-16 13:17N 29°44' W 095°08'2 7.6
2018-May-16 12:59N 29°45' W 095°06'1 1.4
2018-May-16 12:30N 29°46' W 095°06'2 3.9
2018-May-16 12:00N 29°47' W 095°04'0 0.0
2018-May-16 11:30N 29°47' W 095°04'0 0.0
2018-May-16 11:00N 29°47' W 095°04'0 0.0
2018-May-16 10:30N 29°47' W 095°04'0 0.0
2018-May-16 10:01N 29°47' W 095°04'0 0.0
2018-May-16 09:30N 29°47' W 095°04'0 0.0
2018-May-16 09:00N 29°47' W 095°04'2 4.0
2018-May-16 08:30N 29°46' W 095°05'0 0.8
2018-May-16 08:00N 29°45' W 095°06'0 0.0
2018-May-16 07:30N 29°45' W 095°06'0 0.0
2018-May-16 07:00N 29°45' W 095°06'2 4.7
2018-May-16 06:30N 29°47' W 095°04'0 0.0
2018-May-16 06:00N 29°47' W 095°04'0 0.0
2018-May-16 05:30N 29°47' W 095°04'0 0.0
2018-May-16 05:00N 29°47' W 095°04'0 0.0
2018-May-16 04:30N 29°47' W 095°04'0 0.0
2018-May-16 04:00N 29°47' W 095°04'0 0.0
2018-May-16 03:30N 29°47' W 095°04'0 0.0
2018-May-16 02:59N 29°47' W 095°04'0 0.0
2018-May-16 02:20N 29°47' W 095°04'0 0.3
2018-May-16 02:00N 29°47' W 095°04'2 0.2
2018-May-15 14:16N 29°46' W 095°06'1 3.0
2018-May-15 13:48N 29°47' W 095°05'0 0.3
2018-May-15 13:30N 29°47' W 095°05'0 0.0
2018-May-15 13:00N 29°47' W 095°05'0 0.0
2018-May-15 12:31N 29°47' W 095°05'2 3.0
2018-May-15 12:00N 29°45' W 095°05'3 6.9
2018-May-15 11:30N 29°44' W 095°09'1 0.6
2018-May-15 10:30N 29°44' W 095°10'0 0.0
2018-May-15 10:00N 29°44' W 095°10'0 0.0
2018-May-15 09:21N 29°44' W 095°10'0 0.0
2018-May-15 09:00N 29°44' W 095°10'0 0.0
2018-May-15 08:11N 29°44' W 095°10'0 0.0
2018-May-15 08:00N 29°44' W 095°10'0 0.0
2018-May-15 06:05N 29°44' W 095°10'0 0.0
2018-May-15 05:51N 29°44' W 095°10'0 0.0
2018-May-15 05:16N 29°44' W 095°10'0 0.0
2018-May-15 04:59N 29°44' W 095°10'0 0.0
2018-May-15 04:23N 29°44' W 095°10'0 0.0
2018-May-15 03:15N 29°44' W 095°10'0 0.0
2018-May-15 02:56N 29°44' W 095°10'0 0.0
2018-May-15 02:25N 29°44' W 095°10'0 0.0
2018-May-15 02:00N 29°44' W 095°10'0 0.0
2018-May-15 01:30N 29°44' W 095°10'0 0.0
2018-May-14 13:20N 29°44' W 095°10'  
2018-May-12 00:08N 29°43' W 095°01'1 7.2
2018-May-12 00:00N 29°42' W 095°01'4 7.3
2018-May-11 23:30N 29°39' W 094°58'4 8.0
2018-May-11 23:00N 29°36' W 094°57'4 8.0
2018-May-11 22:30N 29°33' W 094°54'15 1.3
2018-May-11 11:27N 29°19' W 094°47'2 1.6
2018-May-11 10:25N 29°19' W 094°48'9 0.4
2018-May-10 12:47N 29°26' W 094°43'0 0.0
2018-May-10 12:30N 29°26' W 094°43'0 0.0
2018-May-10 11:59N 29°26' W 094°43'0 0.0
2018-May-10 11:30N 29°26' W 094°43'0 0.0
2018-May-10 11:00N 29°26' W 094°43'0 0.0
2018-May-10 10:30N 29°26' W 094°43'0 0.0
2018-May-10 10:01N 29°26' W 094°43'0 0.0
2018-May-10 09:30N 29°26' W 094°43'0 0.0
2018-May-10 09:00N 29°26' W 094°43'0 0.0
2018-May-10 08:29N 29°26' W 094°43'0 0.0
2018-May-10 08:00N 29°26' W 094°43'0 0.0
2018-May-10 07:30N 29°26' W 094°43'0 0.0
2018-May-10 07:00N 29°26' W 094°43'0 0.0
2018-May-10 06:29N 29°26' W 094°43'0 0.0
2018-May-10 05:50N 29°26' W 094°43'0 0.0
2018-May-10 05:11N 29°26' W 094°43'0 0.0
2018-May-10 04:55N 29°26' W 094°43'0 0.0
2018-May-10 04:24N 29°26' W 094°43'0 0.0
2018-May-10 04:00N 29°26' W 094°43'0 0.0
2018-May-10 03:30N 29°26' W 094°43'0 0.0
2018-May-10 02:53N 29°26' W 094°43'0 0.0
2018-May-10 02:30N 29°26' W 094°43'0 0.0
2018-May-10 02:00N 29°26' W 094°43'0 0.0
2018-May-10 01:30N 29°26' W 094°43'0 0.0
2018-May-10 00:59N 29°26' W 094°43'0 0.0
2018-May-10 00:30N 29°26' W 094°43'0 0.0
2018-May-09 23:58N 29°26' W 094°43'0 0.0
2018-May-09 23:30N 29°26' W 094°43'15 3.2
2018-May-09 18:44N 29°33' W 094°28'1 4.4
2018-May-09 18:26N 29°34' W 094°26'3 4.1
2018-May-09 17:45N 29°36' W 094°24'1 4.5
2018-May-09 17:30N 29°36' W 094°23'1 1.6
2018-May-09 16:54N 29°36' W 094°22'0 0.5
2018-May-09 16:28N 29°36' W 094°22'3 5.1
2018-May-09 15:58N 29°38' W 094°19'2 4.4
2018-May-09 15:30N 29°39' W 094°17'2 4.7
2018-May-09 15:00N 29°40' W 094°15'3 5.3
2018-May-09 14:30N 29°41' W 094°12'3 5.2
2018-May-09 14:00N 29°42' W 094°09'3 5.4
2018-May-09 13:30N 29°43' W 094°07'2 4.6
2018-May-09 13:00N 29°45' W 094°05'3 5.6
2018-May-09 12:30N 29°47' W 094°02'3 5.3
2018-May-09 12:00N 29°48' W 093°60'3 5.3
2018-May-09 11:31N 29°50' W 093°57'4 8.0
2018-May-09 11:00N 29°53' W 093°55'4 8.2
2018-May-09 10:31N 29°56' W 093°52'3 5.4
2018-May-09 09:59N 29°59' W 093°50'3 6.5
2018-May-09 09:27N 30°00' W 093°46'3 6.1
2018-May-09 09:00N 30°02' W 093°44'3 5.5
2018-May-09 08:30N 30°04' W 093°42'3 5.5
2018-May-09 08:00N 30°04' W 093°38'2 4.8
2018-May-09 07:30N 30°04' W 093°36'2 4.0
2018-May-09 06:59N 30°04' W 093°33'2 4.7
2018-May-09 06:30N 30°04' W 093°31'2 4.7
2018-May-09 06:01N 30°04' W 093°28'2 4.7
2018-May-09 05:30N 30°04' W 093°25'2 4.7
2018-May-09 05:00N 30°04' W 093°22'2 4.0
2018-May-09 04:29N 30°05' W 093°20'0 0.7
2018-May-09 04:00N 30°05' W 093°20'0 0.0
2018-May-09 03:30N 30°05' W 093°20'0 0.2
2018-May-09 03:00N 30°05' W 093°20'0 0.1
2018-May-09 02:30N 30°05' W 093°20'0 0.0
2018-May-09 02:00N 30°05' W 093°20'0 0.0
2018-May-09 01:30N 30°05' W 093°20'1 2.2
2018-May-09 01:01N 30°06' W 093°19'1 1.9
2018-May-09 00:30N 30°06' W 093°18'0 0.0
2018-May-09 00:00N 30°06' W 093°18'2 3.8
2018-May-08 23:30N 30°05' W 093°20'0 0.3
2018-May-08 23:00N 30°05' W 093°20'0 0.0
2018-May-08 22:30N 30°05' W 093°20'0 0.0
2018-May-08 22:00N 30°05' W 093°20'0 0.0
2018-May-08 21:30N 30°05' W 093°20'0 0.0
2018-May-08 21:00N 30°05' W 093°20'0 0.0
2018-May-08 20:30N 30°05' W 093°20'0 0.0
2018-May-08 20:01N 30°05' W 093°20'0 0.0
2018-May-08 19:30N 30°05' W 093°20'0 0.0
2018-May-08 19:00N 30°05' W 093°20'0 0.0
2018-May-08 18:30N 30°05' W 093°20'0 0.0
2018-May-08 18:00N 30°05' W 093°20'0 0.0
2018-May-08 17:30N 30°05' W 093°20'0 0.0
2018-May-08 17:00N 30°05' W 093°20'0 0.0
2018-May-08 16:30N 30°05' W 093°20'0 0.0
2018-May-08 16:00N 30°05' W 093°20'0 0.0
2018-May-08 15:30N 30°05' W 093°20'0 0.0
2018-May-08 15:00N 30°05' W 093°20'0 0.0
2018-May-08 14:30N 30°05' W 093°20'0 0.0
2018-May-08 13:58N 30°05' W 093°20'0 0.0
2018-May-08 13:30N 30°05' W 093°20'0 0.0
2018-May-08 13:01N 30°05' W 093°20'0 0.0
2018-May-08 12:30N 30°05' W 093°20'1 2.9
2018-May-08 12:00N 30°06' W 093°20'2 3.7
2018-May-08 11:30N 30°08' W 093°20'0 0.4
2018-May-08 11:00N 30°08' W 093°19'  
Track history (hours):
 
Tides and Currents Weather Stations Pressure Air Temp Water Temp Dewpoint Dewpoint Depression Visibility Wind Speed Wind Dir Waves Ship Positions

Pimlico

Owner: Higman Barge Lines, Inc., Orange, TX. More information available from US FCC via Universal Licensing System and Coast Guard Vessel Documentation Center.

Last reported at 2018-May-18 10:51 UTC. Time now 2018-May-20 15:56 UTC.
Position N 29°47' W 095°04'.

Length 24 m; draft 3 m.

Type: Towing. MMSI: 367013470.

Date/timePositionNaut miles runAvg speedWind from/ knotsBaromVisibWave heightAir tempDewpointWater temp
2018-May-18 10:51N 29°47' W 095°04'0 0.4
2018-May-18 10:29N 29°47' W 095°04'0 0.2
2018-May-18 09:37N 29°47' W 095°04'0 0.0
2018-May-18 09:29N 29°47' W 095°04'0 0.0
2018-May-18 08:58N 29°47' W 095°04'0 0.0
2018-May-18 08:30N 29°47' W 095°04'0 0.0
2018-May-18 08:00N 29°47' W 095°04'0 0.0
2018-May-18 07:30N 29°47' W 095°04'0 0.0
2018-May-18 07:00N 29°47' W 095°04'0 0.0
2018-May-18 06:29N 29°47' W 095°04'0 0.0
2018-May-18 06:00N 29°47' W 095°04'0 0.0
2018-May-18 05:29N 29°47' W 095°04'0 0.0
2018-May-18 04:51N 29°47' W 095°04'0 0.0
2018-May-18 04:30N 29°47' W 095°04'0 0.0
2018-May-18 03:43N 29°47' W 095°04'0 0.0
2018-May-18 03:21N 29°47' W 095°04'0 0.0
2018-May-18 02:59N 29°47' W 095°04'0 0.0
2018-May-17 04:10N 29°47' W 095°04'0 0.0
2018-May-17 03:52N 29°47' W 095°04'0 0.0
2018-May-17 03:29N 29°47' W 095°04'2 0.1
2018-May-16 13:57N 29°46' W 095°06'3 4.4
2018-May-16 13:17N 29°44' W 095°08'2 7.6
2018-May-16 12:59N 29°45' W 095°06'1 1.4
2018-May-16 12:30N 29°46' W 095°06'2 3.9
2018-May-16 12:00N 29°47' W 095°04'0 0.0
2018-May-16 11:30N 29°47' W 095°04'0 0.0
2018-May-16 11:00N 29°47' W 095°04'0 0.0
2018-May-16 10:30N 29°47' W 095°04'0 0.0
2018-May-16 10:01N 29°47' W 095°04'0 0.0
2018-May-16 09:30N 29°47' W 095°04'0 0.0
2018-May-16 09:00N 29°47' W 095°04'2 4.0
2018-May-16 08:30N 29°46' W 095°05'0 0.8
2018-May-16 08:00N 29°45' W 095°06'0 0.0
2018-May-16 07:30N 29°45' W 095°06'0 0.0
2018-May-16 07:00N 29°45' W 095°06'2 4.7
2018-May-16 06:30N 29°47' W 095°04'0 0.0
2018-May-16 06:00N 29°47' W 095°04'0 0.0
2018-May-16 05:30N 29°47' W 095°04'0 0.0
2018-May-16 05:00N 29°47' W 095°04'0 0.0
2018-May-16 04:30N 29°47' W 095°04'0 0.0
2018-May-16 04:00N 29°47' W 095°04'0 0.0
2018-May-16 03:30N 29°47' W 095°04'0 0.0
2018-May-16 02:59N 29°47' W 095°04'0 0.0
2018-May-16 02:20N 29°47' W 095°04'0 0.3
2018-May-16 02:00N 29°47' W 095°04'2 0.2
2018-May-15 14:16N 29°46' W 095°06'1 3.0
2018-May-15 13:48N 29°47' W 095°05'0 0.3
2018-May-15 13:30N 29°47' W 095°05'0 0.0
2018-May-15 13:00N 29°47' W 095°05'0 0.0
2018-May-15 12:31N 29°47' W 095°05'2 3.0
2018-May-15 12:00N 29°45' W 095°05'3 6.9
2018-May-15 11:30N 29°44' W 095°09'1 0.6
2018-May-15 10:30N 29°44' W 095°10'0 0.0
2018-May-15 10:00N 29°44' W 095°10'0 0.0
2018-May-15 09:21N 29°44' W 095°10'0 0.0
2018-May-15 09:00N 29°44' W 095°10'0 0.0
2018-May-15 08:11N 29°44' W 095°10'0 0.0
2018-May-15 08:00N 29°44' W 095°10'0 0.0
2018-May-15 06:05N 29°44' W 095°10'0 0.0
2018-May-15 05:51N 29°44' W 095°10'0 0.0
2018-May-15 05:16N 29°44' W 095°10'0 0.0
2018-May-15 04:59N 29°44' W 095°10'0 0.0
2018-May-15 04:23N 29°44' W 095°10'0 0.0
2018-May-15 03:15N 29°44' W 095°10'0 0.0
2018-May-15 02:56N 29°44' W 095°10'0 0.0
2018-May-15 02:25N 29°44' W 095°10'0 0.0
2018-May-15 02:00N 29°44' W 095°10'0 0.0
2018-May-15 01:30N 29°44' W 095°10'0 0.0
2018-May-14 13:20N 29°44' W 095°10'  
2018-May-12 00:08N 29°43' W 095°01'1 7.2
2018-May-12 00:00N 29°42' W 095°01'4 7.3
2018-May-11 23:30N 29°39' W 094°58'4 8.0
2018-May-11 23:00N 29°36' W 094°57'4 8.0
2018-May-11 22:30N 29°33' W 094°54'15 1.3
2018-May-11 11:27N 29°19' W 094°47'2 1.6
2018-May-11 10:25N 29°19' W 094°48'9 0.4
2018-May-10 12:47N 29°26' W 094°43'0 0.0
2018-May-10 12:30N 29°26' W 094°43'0 0.0
2018-May-10 11:59N 29°26' W 094°43'0 0.0
2018-May-10 11:30N 29°26' W 094°43'0 0.0
2018-May-10 11:00N 29°26' W 094°43'0 0.0
2018-May-10 10:30N 29°26' W 094°43'0 0.0
2018-May-10 10:01N 29°26' W 094°43'0 0.0
2018-May-10 09:30N 29°26' W 094°43'0 0.0
2018-May-10 09:00N 29°26' W 094°43'0 0.0
2018-May-10 08:29N 29°26' W 094°43'0 0.0
2018-May-10 08:00N 29°26' W 094°43'0 0.0
2018-May-10 07:30N 29°26' W 094°43'0 0.0
2018-May-10 07:00N 29°26' W 094°43'0 0.0
2018-May-10 06:29N 29°26' W 094°43'0 0.0
2018-May-10 05:50N 29°26' W 094°43'0 0.0
2018-May-10 05:11N 29°26' W 094°43'0 0.0
2018-May-10 04:55N 29°26' W 094°43'0 0.0
2018-May-10 04:24N 29°26' W 094°43'0 0.0
2018-May-10 04:00N 29°26' W 094°43'0 0.0
2018-May-10 03:30N 29°26' W 094°43'0 0.0
2018-May-10 02:53N 29°26' W 094°43'0 0.0
2018-May-10 02:30N 29°26' W 094°43'0 0.0
2018-May-10 02:00N 29°26' W 094°43'0 0.0
2018-May-10 01:30N 29°26' W 094°43'0 0.0
2018-May-10 00:59N 29°26' W 094°43'0 0.0
2018-May-10 00:30N 29°26' W 094°43'0 0.0
2018-May-09 23:58N 29°26' W 094°43'0 0.0
2018-May-09 23:30N 29°26' W 094°43'15 3.2
2018-May-09 18:44N 29°33' W 094°28'1 4.4
2018-May-09 18:26N 29°34' W 094°26'3 4.1
2018-May-09 17:45N 29°36' W 094°24'1 4.5
2018-May-09 17:30N 29°36' W 094°23'1 1.6
2018-May-09 16:54N 29°36' W 094°22'0 0.5
2018-May-09 16:28N 29°36' W 094°22'3 5.1
2018-May-09 15:58N 29°38' W 094°19'2 4.4
2018-May-09 15:30N 29°39' W 094°17'2 4.7
2018-May-09 15:00N 29°40' W 094°15'3 5.3
2018-May-09 14:30N 29°41' W 094°12'3 5.2
2018-May-09 14:00N 29°42' W 094°09'3 5.4
2018-May-09 13:30N 29°43' W 094°07'2 4.6
2018-May-09 13:00N 29°45' W 094°05'3 5.6
2018-May-09 12:30N 29°47' W 094°02'3 5.3
2018-May-09 12:00N 29°48' W 093°60'3 5.3
2018-May-09 11:31N 29°50' W 093°57'4 8.0
2018-May-09 11:00N 29°53' W 093°55'4 8.2
2018-May-09 10:31N 29°56' W 093°52'3 5.4
2018-May-09 09:59N 29°59' W 093°50'3 6.5
2018-May-09 09:27N 30°00' W 093°46'3 6.1
2018-May-09 09:00N 30°02' W 093°44'3 5.5
2018-May-09 08:30N 30°04' W 093°42'3 5.5
2018-May-09 08:00N 30°04' W 093°38'2 4.8
2018-May-09 07:30N 30°04' W 093°36'2 4.0
2018-May-09 06:59N 30°04' W 093°33'2 4.7
2018-May-09 06:30N 30°04' W 093°31'2 4.7
2018-May-09 06:01N 30°04' W 093°28'2 4.7
2018-May-09 05:30N 30°04' W 093°25'2 4.7
2018-May-09 05:00N 30°04' W 093°22'2 4.0
2018-May-09 04:29N 30°05' W 093°20'0 0.7
2018-May-09 04:00N 30°05' W 093°20'0 0.0
2018-May-09 03:30N 30°05' W 093°20'0 0.2
2018-May-09 03:00N 30°05' W 093°20'0 0.1
2018-May-09 02:30N 30°05' W 093°20'0 0.0
2018-May-09 02:00N 30°05' W 093°20'0 0.0
2018-May-09 01:30N 30°05' W 093°20'1 2.2
2018-May-09 01:01N 30°06' W 093°19'1 1.9
2018-May-09 00:30N 30°06' W 093°18'0 0.0
2018-May-09 00:00N 30°06' W 093°18'2 3.8
2018-May-08 23:30N 30°05' W 093°20'0 0.3
2018-May-08 23:00N 30°05' W 093°20'0 0.0
2018-May-08 22:30N 30°05' W 093°20'0 0.0
2018-May-08 22:00N 30°05' W 093°20'0 0.0
2018-May-08 21:30N 30°05' W 093°20'0 0.0
2018-May-08 21:00N 30°05' W 093°20'0 0.0
2018-May-08 20:30N 30°05' W 093°20'0 0.0
2018-May-08 20:01N 30°05' W 093°20'0 0.0
2018-May-08 19:30N 30°05' W 093°20'0 0.0
2018-May-08 19:00N 30°05' W 093°20'0 0.0
2018-May-08 18:30N 30°05' W 093°20'0 0.0
2018-May-08 18:00N 30°05' W 093°20'0 0.0
2018-May-08 17:30N 30°05' W 093°20'0 0.0
2018-May-08 17:00N 30°05' W 093°20'0 0.0
2018-May-08 16:30N 30°05' W 093°20'0 0.0
2018-May-08 16:00N 30°05' W 093°20'0 0.0
2018-May-08 15:30N 30°05' W 093°20'0 0.0
2018-May-08 15:00N 30°05' W 093°20'0 0.0
2018-May-08 14:30N 30°05' W 093°20'0 0.0
2018-May-08 13:58N 30°05' W 093°20'0 0.0
2018-May-08 13:30N 30°05' W 093°20'0 0.0
2018-May-08 13:01N 30°05' W 093°20'0 0.0
2018-May-08 12:30N 30°05' W 093°20'1 2.9
2018-May-08 12:00N 30°06' W 093°20'2 3.7
2018-May-08 11:30N 30°08' W 093°20'0 0.4
2018-May-08 11:00N 30°08' W 093°19'  

Dump ship's entire track history